sensor_id;sensor_type;location;lat;lon;timestamp;P1;durP1;ratioP1;P2;durP2;ratioP2
6007;SDS011;3032;49.484;11.112;2023-01-30T00:00:34;27.08;;;14.73;;
6007;SDS011;3032;49.484;11.112;2023-01-30T00:02:59;22.63;;;12.53;;
6007;SDS011;3032;49.484;11.112;2023-01-30T00:05:25;25.40;;;14.90;;
6007;SDS011;3032;49.484;11.112;2023-01-30T00:07:51;25.80;;;13.50;;
6007;SDS011;3032;49.484;11.112;2023-01-30T00:10:16;23.67;;;14.30;;
6007;SDS011;3032;49.484;11.112;2023-01-30T00:12:44;25.45;;;14.48;;
6007;SDS011;3032;49.484;11.112;2023-01-30T00:15:09;25.57;;;15.00;;
6007;SDS011;3032;49.484;11.112;2023-01-30T00:17:35;23.50;;;14.10;;
6007;SDS011;3032;49.484;11.112;2023-01-30T00:20:00;27.70;;;15.00;;
6007;SDS011;3032;49.484;11.112;2023-01-30T00:22:26;23.30;;;13.37;;
6007;SDS011;3032;49.484;11.112;2023-01-30T00:24:52;24.43;;;14.13;;
6007;SDS011;3032;49.484;11.112;2023-01-30T00:27:17;26.87;;;15.77;;
6007;SDS011;3032;49.484;11.112;2023-01-30T00:29:43;27.77;;;15.77;;
6007;SDS011;3032;49.484;11.112;2023-01-30T00:32:08;26.17;;;14.73;;
6007;SDS011;3032;49.484;11.112;2023-01-30T00:34:34;24.73;;;14.53;;
6007;SDS011;3032;49.484;11.112;2023-01-30T00:36:59;26.60;;;15.37;;
6007;SDS011;3032;49.484;11.112;2023-01-30T00:39:25;23.10;;;13.77;;
6007;SDS011;3032;49.484;11.112;2023-01-30T00:41:51;28.00;;;15.77;;
6007;SDS011;3032;49.484;11.112;2023-01-30T00:44:35;31.02;;;16.00;;
6007;SDS011;3032;49.484;11.112;2023-01-30T00:47:20;25.33;;;15.05;;
6007;SDS011;3032;49.484;11.112;2023-01-30T00:49:46;27.17;;;16.38;;
6007;SDS011;3032;49.484;11.112;2023-01-30T00:52:11;26.90;;;16.17;;
6007;SDS011;3032;49.484;11.112;2023-01-30T00:54:37;25.17;;;14.90;;
6007;SDS011;3032;49.484;11.112;2023-01-30T00:57:02;26.47;;;15.27;;
6007;SDS011;3032;49.484;11.112;2023-01-30T00:59:28;22.80;;;14.83;;
6007;SDS011;3032;49.484;11.112;2023-01-30T01:01:54;25.40;;;15.00;;
6007;SDS011;3032;49.484;11.112;2023-01-30T01:04:19;22.07;;;14.07;;
6007;SDS011;3032;49.484;11.112;2023-01-30T01:06:45;21.90;;;14.07;;
6007;SDS011;3032;49.484;11.112;2023-01-30T01:09:11;27.50;;;14.53;;
6007;SDS011;3032;49.484;11.112;2023-01-30T01:11:36;22.33;;;14.47;;
6007;SDS011;3032;49.484;11.112;2023-01-30T01:14:02;23.43;;;13.57;;
6007;SDS011;3032;49.484;11.112;2023-01-30T01:16:29;22.00;;;12.95;;
6007;SDS011;3032;49.484;11.112;2023-01-30T01:18:56;19.50;;;13.18;;
6007;SDS011;3032;49.484;11.112;2023-01-30T01:21:22;25.20;;;14.68;;
6007;SDS011;3032;49.484;11.112;2023-01-30T01:23:51;23.25;;;13.93;;
6007;SDS011;3032;49.484;11.112;2023-01-30T01:26:21;21.08;;;13.65;;
6007;SDS011;3032;49.484;11.112;2023-01-30T01:28:47;24.80;;;14.40;;
6007;SDS011;3032;49.484;11.112;2023-01-30T01:31:14;21.35;;;13.40;;
6007;SDS011;3032;49.484;11.112;2023-01-30T01:33:40;23.42;;;13.95;;
6007;SDS011;3032;49.484;11.112;2023-01-30T01:36:07;23.17;;;13.65;;
6007;SDS011;3032;49.484;11.112;2023-01-30T01:38:32;25.48;;;14.48;;
6007;SDS011;3032;49.484;11.112;2023-01-30T01:40:58;21.03;;;13.50;;
6007;SDS011;3032;49.484;11.112;2023-01-30T01:43:27;22.90;;;13.85;;
6007;SDS011;3032;49.484;11.112;2023-01-30T01:45:59;23.38;;;13.05;;
6007;SDS011;3032;49.484;11.112;2023-01-30T01:48:26;20.35;;;12.30;;
6007;SDS011;3032;49.484;11.112;2023-01-30T01:50:57;24.38;;;12.90;;
6007;SDS011;3032;49.484;11.112;2023-01-30T01:53:42;21.83;;;13.05;;
6007;SDS011;3032;49.484;11.112;2023-01-30T01:56:14;21.05;;;13.70;;
6007;SDS011;3032;49.484;11.112;2023-01-30T01:58:56;19.98;;;11.85;;
6007;SDS011;3032;49.484;11.112;2023-01-30T02:01:27;22.30;;;13.40;;
6007;SDS011;3032;49.484;11.112;2023-01-30T02:03:55;22.73;;;12.70;;
6007;SDS011;3032;49.484;11.112;2023-01-30T02:06:25;24.65;;;14.90;;
6007;SDS011;3032;49.484;11.112;2023-01-30T02:08:54;21.05;;;13.43;;
6007;SDS011;3032;49.484;11.112;2023-01-30T02:11:30;20.23;;;13.60;;
6007;SDS011;3032;49.484;11.112;2023-01-30T02:13:57;20.65;;;13.27;;
6007;SDS011;3032;49.484;11.112;2023-01-30T02:16:24;22.10;;;14.18;;
6007;SDS011;3032;49.484;11.112;2023-01-30T02:18:50;20.00;;;12.77;;
6007;SDS011;3032;49.484;11.112;2023-01-30T02:38:15;22.80;;;13.00;;
6007;SDS011;3032;49.484;11.112;2023-01-30T02:43:50;20.65;;;13.27;;
6007;SDS011;3032;49.484;11.112;2023-01-30T02:46:45;19.98;;;11.02;;
6007;SDS011;3032;49.484;11.112;2023-01-30T02:49:27;16.48;;;10.40;;
6007;SDS011;3032;49.484;11.112;2023-01-30T02:52:00;20.20;;;12.18;;
6007;SDS011;3032;49.484;11.112;2023-01-30T02:54:27;18.50;;;11.73;;
6007;SDS011;3032;49.484;11.112;2023-01-30T02:56:55;21.00;;;12.50;;
6007;SDS011;3032;49.484;11.112;2023-01-30T02:59:25;16.85;;;10.73;;
6007;SDS011;3032;49.484;11.112;2023-01-30T03:02:11;19.45;;;11.70;;
6007;SDS011;3032;49.484;11.112;2023-01-30T03:15:09;19.98;;;12.07;;
6007;SDS011;3032;49.484;11.112;2023-01-30T03:17:47;18.92;;;11.73;;
6007;SDS011;3032;49.484;11.112;2023-01-30T03:20:13;17.27;;;11.50;;
6007;SDS011;3032;49.484;11.112;2023-01-30T03:22:42;16.30;;;10.70;;
6007;SDS011;3032;49.484;11.112;2023-01-30T03:25:08;18.00;;;11.70;;
6007;SDS011;3032;49.484;11.112;2023-01-30T03:27:36;13.82;;;10.00;;
6007;SDS011;3032;49.484;11.112;2023-01-30T03:30:03;17.05;;;10.75;;
6007;SDS011;3032;49.484;11.112;2023-01-30T03:32:29;18.00;;;11.85;;
6007;SDS011;3032;49.484;11.112;2023-01-30T03:34:54;14.20;;;9.70;;
6007;SDS011;3032;49.484;11.112;2023-01-30T03:37:20;16.23;;;10.47;;
6007;SDS011;3032;49.484;11.112;2023-01-30T03:39:45;17.33;;;11.00;;
6007;SDS011;3032;49.484;11.112;2023-01-30T03:42:11;15.00;;;9.60;;
6007;SDS011;3032;49.484;11.112;2023-01-30T03:44:37;17.75;;;10.68;;
6007;SDS011;3032;49.484;11.112;2023-01-30T03:47:03;17.73;;;11.37;;
6007;SDS011;3032;49.484;11.112;2023-01-30T03:49:29;17.43;;;10.17;;
6007;SDS011;3032;49.484;11.112;2023-01-30T03:51:54;17.10;;;10.70;;
6007;SDS011;3032;49.484;11.112;2023-01-30T03:54:20;16.43;;;10.57;;
6007;SDS011;3032;49.484;11.112;2023-01-30T03:56:45;17.60;;;10.83;;
6007;SDS011;3032;49.484;11.112;2023-01-30T03:59:11;14.83;;;9.93;;
6007;SDS011;3032;49.484;11.112;2023-01-30T04:01:36;15.73;;;10.40;;
6007;SDS011;3032;49.484;11.112;2023-01-30T04:04:02;19.07;;;11.30;;
6007;SDS011;3032;49.484;11.112;2023-01-30T04:06:28;15.90;;;10.63;;
6007;SDS011;3032;49.484;11.112;2023-01-30T04:08:53;16.77;;;10.57;;
6007;SDS011;3032;49.484;11.112;2023-01-30T04:11:19;14.37;;;9.70;;
6007;SDS011;3032;49.484;11.112;2023-01-30T04:13:45;17.33;;;10.10;;
6007;SDS011;3032;49.484;11.112;2023-01-30T04:18:41;13.15;;;9.00;;
6007;SDS011;3032;49.484;11.112;2023-01-30T04:21:06;11.13;;;7.50;;
6007;SDS011;3032;49.484;11.112;2023-01-30T04:23:32;15.93;;;9.90;;
6007;SDS011;3032;49.484;11.112;2023-01-30T04:25:58;17.13;;;10.87;;
6007;SDS011;3032;49.484;11.112;2023-01-30T04:28:23;16.60;;;10.17;;
6007;SDS011;3032;49.484;11.112;2023-01-30T04:30:51;16.83;;;10.77;;
6007;SDS011;3032;49.484;11.112;2023-01-30T04:33:17;14.82;;;9.23;;
6007;SDS011;3032;49.484;11.112;2023-01-30T04:35:52;17.00;;;10.50;;
6007;SDS011;3032;49.484;11.112;2023-01-30T04:38:22;16.13;;;10.77;;
6007;SDS011;3032;49.484;11.112;2023-01-30T04:40:53;15.93;;;10.48;;
6007;SDS011;3032;49.484;11.112;2023-01-30T04:43:20;12.32;;;8.75;;
6007;SDS011;3032;49.484;11.112;2023-01-30T04:45:47;13.48;;;9.75;;
6007;SDS011;3032;49.484;11.112;2023-01-30T04:48:14;12.60;;;7.53;;
6007;SDS011;3032;49.484;11.112;2023-01-30T04:50:41;13.02;;;9.43;;
6007;SDS011;3032;49.484;11.112;2023-01-30T04:53:08;13.15;;;9.00;;
6007;SDS011;3032;49.484;11.112;2023-01-30T04:55:35;13.75;;;8.50;;
6007;SDS011;3032;49.484;11.112;2023-01-30T04:58:00;13.68;;;8.95;;
6007;SDS011;3032;49.484;11.112;2023-01-30T05:00:26;19.77;;;10.00;;
6007;SDS011;3032;49.484;11.112;2023-01-30T05:02:52;14.80;;;10.20;;
6007;SDS011;3032;49.484;11.112;2023-01-30T05:05:19;15.98;;;9.73;;
6007;SDS011;3032;49.484;11.112;2023-01-30T05:07:46;14.77;;;9.82;;
6007;SDS011;3032;49.484;11.112;2023-01-30T05:10:11;15.30;;;9.87;;
6007;SDS011;3032;49.484;11.112;2023-01-30T05:12:37;13.87;;;8.67;;
6007;SDS011;3032;49.484;11.112;2023-01-30T05:15:02;13.67;;;9.47;;
6007;SDS011;3032;49.484;11.112;2023-01-30T05:17:29;15.55;;;9.70;;
6007;SDS011;3032;49.484;11.112;2023-01-30T05:19:54;13.77;;;9.70;;
6007;SDS011;3032;49.484;11.112;2023-01-30T05:22:20;15.40;;;9.77;;
6007;SDS011;3032;49.484;11.112;2023-01-30T05:24:45;14.27;;;9.67;;
6007;SDS011;3032;49.484;11.112;2023-01-30T05:27:11;12.82;;;8.32;;
6007;SDS011;3032;49.484;11.112;2023-01-30T05:29:37;13.80;;;9.70;;
6007;SDS011;3032;49.484;11.112;2023-01-30T05:32:03;14.27;;;9.40;;
6007;SDS011;3032;49.484;11.112;2023-01-30T05:34:28;14.82;;;9.73;;
6007;SDS011;3032;49.484;11.112;2023-01-30T05:36:54;15.67;;;9.90;;
6007;SDS011;3032;49.484;11.112;2023-01-30T05:39:20;17.40;;;10.10;;
6007;SDS011;3032;49.484;11.112;2023-01-30T05:41:45;17.73;;;10.73;;
6007;SDS011;3032;49.484;11.112;2023-01-30T05:44:11;16.53;;;10.80;;
6007;SDS011;3032;49.484;11.112;2023-01-30T05:46:36;18.60;;;11.20;;
6007;SDS011;3032;49.484;11.112;2023-01-30T05:49:02;19.47;;;11.73;;
6007;SDS011;3032;49.484;11.112;2023-01-30T05:51:31;17.73;;;10.50;;
6007;SDS011;3032;49.484;11.112;2023-01-30T05:53:57;17.10;;;11.20;;
6007;SDS011;3032;49.484;11.112;2023-01-30T05:56:23;16.40;;;10.87;;
6007;SDS011;3032;49.484;11.112;2023-01-30T05:58:52;16.17;;;10.83;;
6007;SDS011;3032;49.484;11.112;2023-01-30T06:01:19;19.02;;;11.02;;
6007;SDS011;3032;49.484;11.112;2023-01-30T06:03:45;15.95;;;9.88;;
6007;SDS011;3032;49.484;11.112;2023-01-30T06:06:12;20.88;;;10.80;;
6007;SDS011;3032;49.484;11.112;2023-01-30T06:08:38;17.23;;;10.82;;
6007;SDS011;3032;49.484;11.112;2023-01-30T06:11:05;17.40;;;11.40;;
6007;SDS011;3032;49.484;11.112;2023-01-30T06:13:35;16.08;;;10.98;;
6007;SDS011;3032;49.484;11.112;2023-01-30T06:16:01;19.80;;;11.88;;
6007;SDS011;3032;49.484;11.112;2023-01-30T06:18:27;19.17;;;11.55;;
6007;SDS011;3032;49.484;11.112;2023-01-30T06:20:53;16.57;;;10.00;;
6007;SDS011;3032;49.484;11.112;2023-01-30T06:23:19;21.27;;;11.50;;
6007;SDS011;3032;49.484;11.112;2023-01-30T06:25:49;19.35;;;12.00;;
6007;SDS011;3032;49.484;11.112;2023-01-30T06:28:17;22.55;;;12.80;;
6007;SDS011;3032;49.484;11.112;2023-01-30T06:30:44;17.85;;;11.60;;
6007;SDS011;3032;49.484;11.112;2023-01-30T06:33:10;17.90;;;11.53;;
6007;SDS011;3032;49.484;11.112;2023-01-30T06:35:36;19.23;;;12.80;;
6007;SDS011;3032;49.484;11.112;2023-01-30T06:38:02;17.25;;;10.90;;
6007;SDS011;3032;49.484;11.112;2023-01-30T06:40:28;20.25;;;11.82;;
6007;SDS011;3032;49.484;11.112;2023-01-30T06:42:54;16.30;;;10.83;;
6007;SDS011;3032;49.484;11.112;2023-01-30T06:45:19;16.10;;;11.83;;
6007;SDS011;3032;49.484;11.112;2023-01-30T06:47:49;15.30;;;10.37;;
6007;SDS011;3032;49.484;11.112;2023-01-30T06:50:19;17.85;;;10.80;;
6007;SDS011;3032;49.484;11.112;2023-01-30T06:52:48;14.48;;;9.90;;
6007;SDS011;3032;49.484;11.112;2023-01-30T06:55:15;17.55;;;10.23;;
6007;SDS011;3032;49.484;11.112;2023-01-30T06:57:42;15.65;;;10.77;;
6007;SDS011;3032;49.484;11.112;2023-01-30T07:00:10;16.95;;;10.50;;
6007;SDS011;3032;49.484;11.112;2023-01-30T07:02:38;17.02;;;9.90;;
6007;SDS011;3032;49.484;11.112;2023-01-30T07:05:04;15.00;;;9.60;;
6007;SDS011;3032;49.484;11.112;2023-01-30T07:07:31;15.98;;;10.63;;
6007;SDS011;3032;49.484;11.112;2023-01-30T07:09:57;14.77;;;10.03;;
6007;SDS011;3032;49.484;11.112;2023-01-30T07:12:23;15.87;;;11.00;;
6007;SDS011;3032;49.484;11.112;2023-01-30T07:14:50;13.88;;;9.98;;
6007;SDS011;3032;49.484;11.112;2023-01-30T07:17:17;12.77;;;9.73;;
6007;SDS011;3032;49.484;11.112;2023-01-30T07:19:43;12.90;;;9.57;;
6007;SDS011;3032;49.484;11.112;2023-01-30T07:22:09;13.60;;;8.65;;
6007;SDS011;3032;49.484;11.112;2023-01-30T07:24:35;12.27;;;8.43;;
6007;SDS011;3032;49.484;11.112;2023-01-30T07:27:00;18.40;;;10.03;;
6007;SDS011;3032;49.484;11.112;2023-01-30T07:29:26;11.53;;;8.70;;
6007;SDS011;3032;49.484;11.112;2023-01-30T07:31:51;11.20;;;7.93;;
6007;SDS011;3032;49.484;11.112;2023-01-30T07:34:17;13.37;;;9.20;;
6007;SDS011;3032;49.484;11.112;2023-01-30T07:36:42;15.80;;;10.57;;
6007;SDS011;3032;49.484;11.112;2023-01-30T07:39:08;17.23;;;11.03;;
6007;SDS011;3032;49.484;11.112;2023-01-30T07:41:34;12.73;;;9.50;;
6007;SDS011;3032;49.484;11.112;2023-01-30T07:44:00;14.68;;;8.80;;
6007;SDS011;3032;49.484;11.112;2023-01-30T07:46:26;12.40;;;8.40;;
6007;SDS011;3032;49.484;11.112;2023-01-30T07:48:58;12.80;;;9.25;;
6007;SDS011;3032;49.484;11.112;2023-01-30T07:51:25;11.27;;;8.32;;
6007;SDS011;3032;49.484;11.112;2023-01-30T07:53:50;12.67;;;7.93;;
6007;SDS011;3032;49.484;11.112;2023-01-30T07:56:16;11.17;;;8.17;;
6007;SDS011;3032;49.484;11.112;2023-01-30T07:58:43;12.18;;;8.38;;
6007;SDS011;3032;49.484;11.112;2023-01-30T08:01:09;10.80;;;8.57;;
6007;SDS011;3032;49.484;11.112;2023-01-30T08:03:35;12.30;;;7.50;;
6007;SDS011;3032;49.484;11.112;2023-01-30T08:06:01;9.60;;;7.60;;
6007;SDS011;3032;49.484;11.112;2023-01-30T08:08:26;12.47;;;8.10;;
6007;SDS011;3032;49.484;11.112;2023-01-30T08:10:53;12.00;;;7.18;;
6007;SDS011;3032;49.484;11.112;2023-01-30T08:13:18;13.87;;;9.37;;
6007;SDS011;3032;49.484;11.112;2023-01-30T08:15:44;10.27;;;7.67;;
6007;SDS011;3032;49.484;11.112;2023-01-30T08:18:09;11.30;;;7.77;;
6007;SDS011;3032;49.484;11.112;2023-01-30T08:20:35;10.97;;;7.60;;
6007;SDS011;3032;49.484;11.112;2023-01-30T08:23:00;12.30;;;7.37;;
6007;SDS011;3032;49.484;11.112;2023-01-30T08:25:27;10.00;;;7.20;;
6007;SDS011;3032;49.484;11.112;2023-01-30T08:27:53;11.27;;;7.47;;
6007;SDS011;3032;49.484;11.112;2023-01-30T08:30:19;8.70;;;6.70;;
6007;SDS011;3032;49.484;11.112;2023-01-30T08:32:45;11.55;;;6.90;;
6007;SDS011;3032;49.484;11.112;2023-01-30T08:35:11;9.93;;;6.90;;
6007;SDS011;3032;49.484;11.112;2023-01-30T08:37:38;9.35;;;6.45;;
6007;SDS011;3032;49.484;11.112;2023-01-30T08:40:04;7.40;;;5.88;;
6007;SDS011;3032;49.484;11.112;2023-01-30T08:42:31;8.13;;;6.60;;
6007;SDS011;3032;49.484;11.112;2023-01-30T08:44:56;8.37;;;6.37;;
6007;SDS011;3032;49.484;11.112;2023-01-30T08:47:22;10.77;;;6.47;;
6007;SDS011;3032;49.484;11.112;2023-01-30T08:49:47;8.00;;;6.30;;
6007;SDS011;3032;49.484;11.112;2023-01-30T08:52:15;8.05;;;5.75;;
6007;SDS011;3032;49.484;11.112;2023-01-30T08:54:41;8.43;;;6.37;;
6007;SDS011;3032;49.484;11.112;2023-01-30T08:57:06;8.70;;;6.80;;
6007;SDS011;3032;49.484;11.112;2023-01-30T08:59:32;10.60;;;7.17;;
6007;SDS011;3032;49.484;11.112;2023-01-30T09:01:58;9.83;;;7.10;;
6007;SDS011;3032;49.484;11.112;2023-01-30T09:04:23;9.70;;;7.40;;
6007;SDS011;3032;49.484;11.112;2023-01-30T09:06:50;8.38;;;6.22;;
6007;SDS011;3032;49.484;11.112;2023-01-30T09:09:16;11.70;;;8.23;;
6007;SDS011;3032;49.484;11.112;2023-01-30T09:11:41;14.27;;;8.10;;
6007;SDS011;3032;49.484;11.112;2023-01-30T09:14:07;9.77;;;7.00;;
6007;SDS011;3032;49.484;11.112;2023-01-30T09:16:33;10.73;;;7.33;;
6007;SDS011;3032;49.484;11.112;2023-01-30T09:18:58;13.47;;;8.30;;
6007;SDS011;3032;49.484;11.112;2023-01-30T09:21:24;13.30;;;8.33;;
6007;SDS011;3032;49.484;11.112;2023-01-30T09:23:50;11.50;;;7.37;;
6007;SDS011;3032;49.484;11.112;2023-01-30T09:26:15;13.53;;;9.03;;
6007;SDS011;3032;49.484;11.112;2023-01-30T09:28:41;14.80;;;9.17;;
6007;SDS011;3032;49.484;11.112;2023-01-30T09:31:06;12.87;;;8.80;;
6007;SDS011;3032;49.484;11.112;2023-01-30T09:33:32;15.47;;;9.10;;
6007;SDS011;3032;49.484;11.112;2023-01-30T09:35:58;15.63;;;9.03;;
6007;SDS011;3032;49.484;11.112;2023-01-30T09:38:23;14.03;;;8.40;;
6007;SDS011;3032;49.484;11.112;2023-01-30T09:46:10;10.60;;;7.75;;
6007;SDS011;3032;49.484;11.112;2023-01-30T09:48:54;12.75;;;8.85;;
6007;SDS011;3032;49.484;11.112;2023-01-30T09:51:46;12.57;;;7.68;;
6007;SDS011;3032;49.484;11.112;2023-01-30T09:54:35;12.43;;;8.45;;
6007;SDS011;3032;49.484;11.112;2023-01-30T09:59:34;12.57;;;8.43;;
6007;SDS011;3032;49.484;11.112;2023-01-30T10:02:29;13.43;;;8.80;;
6007;SDS011;3032;49.484;11.112;2023-01-30T10:05:17;11.80;;;7.72;;
6007;SDS011;3032;49.484;11.112;2023-01-30T10:10:45;11.00;;;7.50;;
6007;SDS011;3032;49.484;11.112;2023-01-30T10:24:23;7.68;;;6.10;;
6007;SDS011;3032;49.484;11.112;2023-01-30T10:26:58;9.90;;;6.95;;
6007;SDS011;3032;49.484;11.112;2023-01-30T10:31:54;9.35;;;7.18;;
6007;SDS011;3032;49.484;11.112;2023-01-30T10:34:35;6.85;;;6.15;;
6007;SDS011;3032;49.484;11.112;2023-01-30T10:37:23;9.57;;;5.03;;
6007;SDS011;3032;49.484;11.112;2023-01-30T10:39:55;8.13;;;6.00;;
6007;SDS011;3032;49.484;11.112;2023-01-30T10:45:16;6.05;;;5.20;;
6007;SDS011;3032;49.484;11.112;2023-01-30T10:50:52;5.53;;;4.43;;
6007;SDS011;3032;49.484;11.112;2023-01-30T10:55:53;5.65;;;4.22;;
6007;SDS011;3032;49.484;11.112;2023-01-30T11:01:06;4.63;;;4.13;;
6007;SDS011;3032;49.484;11.112;2023-01-30T11:03:49;5.70;;;4.60;;
6007;SDS011;3032;49.484;11.112;2023-01-30T11:06:31;3.97;;;3.50;;
6007;SDS011;3032;49.484;11.112;2023-01-30T11:08:58;4.88;;;4.38;;
6007;SDS011;3032;49.484;11.112;2023-01-30T11:14:10;5.45;;;4.15;;
6007;SDS011;3032;49.484;11.112;2023-01-30T11:16:41;4.63;;;4.22;;
6007;SDS011;3032;49.484;11.112;2023-01-30T11:19:12;5.53;;;4.97;;
6007;SDS011;3032;49.484;11.112;2023-01-30T11:21:40;6.25;;;4.95;;
6007;SDS011;3032;49.484;11.112;2023-01-30T11:24:41;5.60;;;4.50;;
6007;SDS011;3032;49.484;11.112;2023-01-30T11:27:09;5.50;;;4.43;;
6007;SDS011;3032;49.484;11.112;2023-01-30T11:29:37;5.43;;;4.88;;
6007;SDS011;3032;49.484;11.112;2023-01-30T11:32:05;4.70;;;4.00;;
6007;SDS011;3032;49.484;11.112;2023-01-30T11:34:35;4.25;;;3.67;;
6007;SDS011;3032;49.484;11.112;2023-01-30T11:39:51;5.78;;;4.80;;
6007;SDS011;3032;49.484;11.112;2023-01-30T11:42:18;4.07;;;3.75;;
6007;SDS011;3032;49.484;11.112;2023-01-30T11:44:47;5.03;;;4.40;;
6007;SDS011;3032;49.484;11.112;2023-01-30T11:47:22;4.97;;;4.25;;
6007;SDS011;3032;49.484;11.112;2023-01-30T11:49:51;5.00;;;4.40;;
6007;SDS011;3032;49.484;11.112;2023-01-30T11:52:34;4.85;;;4.00;;
6007;SDS011;3032;49.484;11.112;2023-01-30T11:55:02;6.03;;;4.50;;
6007;SDS011;3032;49.484;11.112;2023-01-30T11:57:46;5.35;;;4.85;;
6007;SDS011;3032;49.484;11.112;2023-01-30T12:02:46;5.22;;;4.72;;
6007;SDS011;3032;49.484;11.112;2023-01-30T12:05:24;5.70;;;5.05;;
6007;SDS011;3032;49.484;11.112;2023-01-30T12:08:41;4.75;;;4.35;;
6007;SDS011;3032;49.484;11.112;2023-01-30T12:10:45;5.53;;;4.80;;
6007;SDS011;3032;49.484;11.112;2023-01-30T12:16:15;4.68;;;4.25;;
6007;SDS011;3032;49.484;11.112;2023-01-30T12:18:50;4.32;;;3.92;;
6007;SDS011;3032;49.484;11.112;2023-01-30T12:24:07;4.53;;;4.10;;
6007;SDS011;3032;49.484;11.112;2023-01-30T12:26:49;4.68;;;4.25;;
6007;SDS011;3032;49.484;11.112;2023-01-30T12:29:47;5.38;;;4.30;;
6007;SDS011;3032;49.484;11.112;2023-01-30T12:32:28;6.65;;;4.40;;
6007;SDS011;3032;49.484;11.112;2023-01-30T12:34:57;4.60;;;4.10;;
6007;SDS011;3032;49.484;11.112;2023-01-30T12:46:02;4.82;;;4.30;;
6007;SDS011;3032;49.484;11.112;2023-01-30T12:48:50;5.13;;;4.60;;
6007;SDS011;3032;49.484;11.112;2023-01-30T12:51:33;5.00;;;4.50;;
6007;SDS011;3032;49.484;11.112;2023-01-30T12:54:24;5.75;;;4.18;;
6007;SDS011;3032;49.484;11.112;2023-01-30T13:02:21;5.22;;;4.25;;
6007;SDS011;3032;49.484;11.112;2023-01-30T13:13:54;5.38;;;4.45;;
6007;SDS011;3032;49.484;11.112;2023-01-30T13:16:54;7.10;;;4.75;;
6007;SDS011;3032;49.484;11.112;2023-01-30T13:19:49;4.70;;;3.95;;
6007;SDS011;3032;49.484;11.112;2023-01-30T13:25:26;4.95;;;4.43;;
6007;SDS011;3032;49.484;11.112;2023-01-30T13:28:08;6.43;;;4.40;;
6007;SDS011;3032;49.484;11.112;2023-01-30T13:30:38;4.72;;;4.25;;
6007;SDS011;3032;49.484;11.112;2023-01-30T13:33:08;5.57;;;4.80;;
6007;SDS011;3032;49.484;11.112;2023-01-30T13:35:40;8.30;;;4.40;;
6007;SDS011;3032;49.484;11.112;2023-01-30T13:38:11;8.20;;;4.70;;
6007;SDS011;3032;49.484;11.112;2023-01-30T13:40:43;5.43;;;4.63;;
6007;SDS011;3032;49.484;11.112;2023-01-30T13:45:44;6.20;;;4.65;;
6007;SDS011;3032;49.484;11.112;2023-01-30T13:48:32;6.70;;;4.45;;
6007;SDS011;3032;49.484;11.112;2023-01-30T13:51:15;5.38;;;4.88;;
6007;SDS011;3032;49.484;11.112;2023-01-30T13:56:45;4.60;;;4.20;;
6007;SDS011;3032;49.484;11.112;2023-01-30T14:03:13;5.88;;;3.85;;
6007;SDS011;3032;49.484;11.112;2023-01-30T14:08:19;3.63;;;3.33;;
6007;SDS011;3032;49.484;11.112;2023-01-30T14:10:50;5.68;;;3.83;;
6007;SDS011;3032;49.484;11.112;2023-01-30T14:13:16;3.70;;;3.40;;
6007;SDS011;3032;49.484;11.112;2023-01-30T14:15:52;4.53;;;4.13;;
6007;SDS011;3032;49.484;11.112;2023-01-30T14:18:30;5.05;;;4.53;;
6007;SDS011;3032;49.484;11.112;2023-01-30T14:23:41;4.30;;;3.65;;
6007;SDS011;3032;49.484;11.112;2023-01-30T14:29:48;5.00;;;4.35;;
6007;SDS011;3032;49.484;11.112;2023-01-30T14:34:42;5.95;;;3.90;;
6007;SDS011;3032;49.484;11.112;2023-01-30T14:37:27;5.18;;;4.78;;
6007;SDS011;3032;49.484;11.112;2023-01-30T14:40:00;5.13;;;4.63;;
6007;SDS011;3032;49.484;11.112;2023-01-30T14:42:28;4.50;;;4.10;;
6007;SDS011;3032;49.484;11.112;2023-01-30T14:44:56;4.30;;;4.00;;
6007;SDS011;3032;49.484;11.112;2023-01-30T14:47:27;6.13;;;4.38;;
6007;SDS011;3032;49.484;11.112;2023-01-30T14:49:54;4.95;;;4.45;;
6007;SDS011;3032;49.484;11.112;2023-01-30T14:52:24;5.82;;;4.72;;
6007;SDS011;3032;49.484;11.112;2023-01-30T14:55:00;4.93;;;4.43;;
6007;SDS011;3032;49.484;11.112;2023-01-30T14:57:27;4.20;;;3.80;;
6007;SDS011;3032;49.484;11.112;2023-01-30T15:00:30;6.10;;;4.22;;
6007;SDS011;3032;49.484;11.112;2023-01-30T15:02:51;4.25;;;3.72;;
6007;SDS011;3032;49.484;11.112;2023-01-30T15:05:26;5.60;;;4.50;;
6007;SDS011;3032;49.484;11.112;2023-01-30T15:08:08;8.55;;;4.50;;
6007;SDS011;3032;49.484;11.112;2023-01-30T15:10:51;5.47;;;4.90;;
6007;SDS011;3032;49.484;11.112;2023-01-30T15:13:51;7.65;;;5.32;;
6007;SDS011;3032;49.484;11.112;2023-01-30T15:16:56;5.20;;;4.70;;
6007;SDS011;3032;49.484;11.112;2023-01-30T15:19:37;7.07;;;4.88;;
6007;SDS011;3032;49.484;11.112;2023-01-30T15:27:50;4.55;;;4.15;;
6007;SDS011;3032;49.484;11.112;2023-01-30T15:30:42;4.72;;;4.22;;
6007;SDS011;3032;49.484;11.112;2023-01-30T15:33:17;3.60;;;3.30;;
6007;SDS011;3032;49.484;11.112;2023-01-30T15:35:44;5.85;;;4.43;;
6007;SDS011;3032;49.484;11.112;2023-01-30T15:38:27;4.70;;;4.30;;
6007;SDS011;3032;49.484;11.112;2023-01-30T15:41:01;5.88;;;4.15;;
6007;SDS011;3032;49.484;11.112;2023-01-30T15:43:51;5.90;;;4.40;;
6007;SDS011;3032;49.484;11.112;2023-01-30T15:49:14;3.80;;;3.50;;
6007;SDS011;3032;49.484;11.112;2023-01-30T15:52:09;9.35;;;4.70;;
6007;SDS011;3032;49.484;11.112;2023-01-30T15:54:38;5.43;;;4.35;;
6007;SDS011;3032;49.484;11.112;2023-01-30T15:57:03;4.77;;;4.30;;
6007;SDS011;3032;49.484;11.112;2023-01-30T15:59:33;6.23;;;4.67;;
6007;SDS011;3032;49.484;11.112;2023-01-30T16:02:16;5.25;;;4.03;;
6007;SDS011;3032;49.484;11.112;2023-01-30T16:05:01;6.85;;;4.95;;
6007;SDS011;3032;49.484;11.112;2023-01-30T16:07:37;7.10;;;5.03;;
6007;SDS011;3032;49.484;11.112;2023-01-30T16:10:02;5.27;;;4.40;;
6007;SDS011;3032;49.484;11.112;2023-01-30T16:12:34;5.80;;;4.30;;
6007;SDS011;3032;49.484;11.112;2023-01-30T16:15:04;6.38;;;4.80;;
6007;SDS011;3032;49.484;11.112;2023-01-30T16:17:40;6.78;;;5.30;;
6007;SDS011;3032;49.484;11.112;2023-01-30T16:20:12;6.57;;;5.07;;
6007;SDS011;3032;49.484;11.112;2023-01-30T16:22:41;6.47;;;5.40;;
6007;SDS011;3032;49.484;11.112;2023-01-30T16:25:44;8.57;;;6.35;;
6007;SDS011;3032;49.484;11.112;2023-01-30T16:28:00;9.50;;;4.82;;
6007;SDS011;3032;49.484;11.112;2023-01-30T16:30:26;6.70;;;5.67;;
6007;SDS011;3032;49.484;11.112;2023-01-30T16:32:53;9.15;;;6.15;;
6007;SDS011;3032;49.484;11.112;2023-01-30T16:37:52;8.18;;;5.80;;
6007;SDS011;3032;49.484;11.112;2023-01-30T16:40:20;9.32;;;6.30;;
6007;SDS011;3032;49.484;11.112;2023-01-30T16:48:42;8.43;;;6.05;;
6007;SDS011;3032;49.484;11.112;2023-01-30T16:53:32;8.63;;;5.90;;
6007;SDS011;3032;49.484;11.112;2023-01-30T16:56:02;7.68;;;5.45;;
6007;SDS011;3032;49.484;11.112;2023-01-30T16:58:32;5.85;;;5.13;;
6007;SDS011;3032;49.484;11.112;2023-01-30T17:00:59;6.60;;;5.45;;
6007;SDS011;3032;49.484;11.112;2023-01-30T17:03:27;5.95;;;5.35;;
6007;SDS011;3032;49.484;11.112;2023-01-30T17:05:57;5.95;;;5.10;;
6007;SDS011;3032;49.484;11.112;2023-01-30T17:17:02;9.85;;;6.28;;
6007;SDS011;3032;49.484;11.112;2023-01-30T17:19:32;6.13;;;5.28;;
6007;SDS011;3032;49.484;11.112;2023-01-30T17:22:00;6.22;;;4.90;;
6007;SDS011;3032;49.484;11.112;2023-01-30T17:24:29;7.05;;;4.85;;
6007;SDS011;3032;49.484;11.112;2023-01-30T17:26:55;6.07;;;5.00;;
6007;SDS011;3032;49.484;11.112;2023-01-30T17:29:28;8.00;;;5.45;;
6007;SDS011;3032;49.484;11.112;2023-01-30T17:31:56;6.32;;;5.57;;
6007;SDS011;3032;49.484;11.112;2023-01-30T17:34:22;6.35;;;5.20;;
6007;SDS011;3032;49.484;11.112;2023-01-30T17:36:49;4.60;;;4.10;;
6007;SDS011;3032;49.484;11.112;2023-01-30T17:39:17;9.93;;;5.68;;
6007;SDS011;3032;49.484;11.112;2023-01-30T17:41:45;6.40;;;4.93;;